Azalea Ace — A8ZJ6 — position and weather

sailwx.info

Track history (hours):
 
Tides and Currents Weather Stations Pressure Air Temp Water Temp Dewpoint Dewpoint Depression Visibility Wind Speed Wind Dir Waves Ship Positions

Azalea Ace

Last reported at 2016-Jul-29 11:34 UTC. Time now 2016-Jul-29 12:03 UTC.
Position N 28°49' W 123°52'.

Length 180 m; draft 8.2 m.

Type: Cargo ship. MMSI: 636015228.

Date/timePositionNaut miles runAvg speedWind from/ knotsBaromVisibWave heightAir tempDewpointWater temp
2016-Jul-29 11:34N 28°49' W 123°52'1515.5
2016-Jul-29 10:34N 28°57' W 124°07'1615.5
2016-Jul-29 09:33N 29°06' W 124°22'1515.4
2016-Jul-29 08:34N 29°14' W 124°36'1615.6
2016-Jul-29 07:34N 29°22' W 124°51'1515.4
2016-Jul-29 06:34N 29°31' W 125°06'1515.4
2016-Jul-29 05:33N 29°39' W 125°21'1715.2
2016-Jul-29 04:25N 29°49' W 125°38'1415.1
2016-Jul-29 03:28N 29°57' W 125°52'1415.1
2016-Jul-29 02:33N 30°04' W 126°05'7113.9
2016-Jul-28 21:24N 30°43' W 127°15'2412.5
2016-Jul-28 19:30N 30°56' W 127°38'1412.6
2016-Jul-28 18:22N 31°04' W 127°52'1212.6
2016-Jul-28 17:26N 31°10' W 128°03'1314.7
2016-Jul-28 16:33N 31°17' W 128°16'1514.8
2016-Jul-28 15:33N 31°26' W 128°30'4614.9
2016-Jul-28 12:27N 31°50' W 129°16'1314.8
2016-Jul-28 11:33N 31°58' W 129°29'1515.0
2016-Jul-28 10:33N 32°06' W 129°44'4915.0
2016-Jul-28 07:19N 32°30' W 130°34'1214.9
2016-Jul-28 06:29N 32°36' W 130°47'1414.9
2016-Jul-28 05:34N 32°42' W 131°01'1514.6
2016-Jul-28 04:33N 32°49' W 131°17'1514.7
2016-Jul-28 03:34N 32°56' W 131°32'1514.8
2016-Jul-28 02:33N 33°03' W 131°48'1514.8
2016-Jul-28 01:33N 33°09' W 132°03'1514.6
2016-Jul-28 00:32N 33°17' W 132°19'1211.8
2016-Jul-27 23:30N 33°22' W 132°32'1111.8
2016-Jul-27 22:33N 33°27' W 132°44'1311.8
2016-Jul-27 21:29N 33°33' W 132°57'1311.8
2016-Jul-27 20:24N 33°39' W 133°11'1011.4
2016-Jul-27 19:32N 33°44' W 133°21'1111.7
2016-Jul-27 18:33N 33°49' W 133°34'1211.7
2016-Jul-27 17:33N 33°55' W 133°46'2114.2
2016-Jul-27 16:04N 34°04' W 134°09'814.2
2016-Jul-27 15:31N 34°08' W 134°17'1414.5
2016-Jul-27 14:33N 34°15' W 134°32'1514.6
2016-Jul-27 13:32N 34°21' W 134°48'  
Track history (hours):
 
Tides and Currents Weather Stations Pressure Air Temp Water Temp Dewpoint Dewpoint Depression Visibility Wind Speed Wind Dir Waves Ship Positions

Azalea Ace

Last reported at 2016-Jul-29 11:34 UTC. Time now 2016-Jul-29 12:03 UTC.
Position N 28°49' W 123°52'.

Length 180 m; draft 8.2 m.

Type: Cargo ship. MMSI: 636015228.

Date/timePositionNaut miles runAvg speedWind from/ knotsBaromVisibWave heightAir tempDewpointWater temp
2016-Jul-29 11:34N 28°49' W 123°52'1515.5
2016-Jul-29 10:34N 28°57' W 124°07'1615.5
2016-Jul-29 09:33N 29°06' W 124°22'1515.4
2016-Jul-29 08:34N 29°14' W 124°36'1615.6
2016-Jul-29 07:34N 29°22' W 124°51'1515.4
2016-Jul-29 06:34N 29°31' W 125°06'1515.4
2016-Jul-29 05:33N 29°39' W 125°21'1715.2
2016-Jul-29 04:25N 29°49' W 125°38'1415.1
2016-Jul-29 03:28N 29°57' W 125°52'1415.1
2016-Jul-29 02:33N 30°04' W 126°05'7113.9
2016-Jul-28 21:24N 30°43' W 127°15'2412.5
2016-Jul-28 19:30N 30°56' W 127°38'1412.6
2016-Jul-28 18:22N 31°04' W 127°52'1212.6
2016-Jul-28 17:26N 31°10' W 128°03'1314.7
2016-Jul-28 16:33N 31°17' W 128°16'1514.8
2016-Jul-28 15:33N 31°26' W 128°30'4614.9
2016-Jul-28 12:27N 31°50' W 129°16'1314.8
2016-Jul-28 11:33N 31°58' W 129°29'1515.0
2016-Jul-28 10:33N 32°06' W 129°44'4915.0
2016-Jul-28 07:19N 32°30' W 130°34'1214.9
2016-Jul-28 06:29N 32°36' W 130°47'1414.9
2016-Jul-28 05:34N 32°42' W 131°01'1514.6
2016-Jul-28 04:33N 32°49' W 131°17'1514.7
2016-Jul-28 03:34N 32°56' W 131°32'1514.8
2016-Jul-28 02:33N 33°03' W 131°48'1514.8
2016-Jul-28 01:33N 33°09' W 132°03'1514.6
2016-Jul-28 00:32N 33°17' W 132°19'1211.8
2016-Jul-27 23:30N 33°22' W 132°32'1111.8
2016-Jul-27 22:33N 33°27' W 132°44'1311.8
2016-Jul-27 21:29N 33°33' W 132°57'1311.8
2016-Jul-27 20:24N 33°39' W 133°11'1011.4
2016-Jul-27 19:32N 33°44' W 133°21'1111.7
2016-Jul-27 18:33N 33°49' W 133°34'1211.7
2016-Jul-27 17:33N 33°55' W 133°46'2114.2
2016-Jul-27 16:04N 34°04' W 134°09'814.2
2016-Jul-27 15:31N 34°08' W 134°17'1414.5
2016-Jul-27 14:33N 34°15' W 134°32'1514.6
2016-Jul-27 13:32N 34°21' W 134°48'  

Dump ship's entire track history